Time;durP1;ratioP1;P1;durP2;ratioP2;P2;SDS_P1;SDS_P2;PMS_P1;PMS_P2;Temp;Humidity;BMP_temperature;BMP_pressure;BME280_temperature;BME280_humidity;BME280_pressure;Samples;Min_cycle;Max_cycle;Signal;HPM_P1;HPM_P2
2024/04/03 00:01:17;;;;;;;3.13;1.90;;;10.20;99.90;;;-141.84;76.82;22517.81;5115356;27;20226;-67
2024/04/03 00:03:44;;;;;;;4.57;1.83;;;10.20;99.90;;;-141.84;77.29;23103.59;5114001;27;20270;-61
2024/04/03 00:06:13;;;;;;;4.93;2.00;;;10.20;99.90;;;-141.84;78.35;27039.47;5115915;27;20252;-62
2024/04/03 00:08:40;;;;;;;3.40;1.90;;;10.20;99.90;;;-141.84;80.53;41804.75;5106704;27;20223;-67
2024/04/03 00:11:07;;;;;;;5.90;2.00;;;10.10;99.90;;;-141.84;79.23;30922.25;5115582;27;20252;-66
2024/04/03 00:13:33;;;;;;;3.63;2.17;;;10.10;99.90;;;-141.84;81.09;43918.63;5112234;28;20223;-61
2024/04/03 00:16:06;;;;;;;3.50;1.80;;;10.10;99.90;;;-141.84;84.85;66493.19;5115424;27;20227;-66
2024/04/03 00:18:32;;;;;;;2.93;1.87;;;10.00;99.90;;;-141.84;86.04;73079.69;5112897;28;20200;-62
2024/04/03 00:21:06;;;;;;;3.97;2.03;;;10.00;99.90;;;-141.84;86.02;73607.09;5115016;27;20673;-68
2024/04/03 00:23:33;;;;;;;4.60;2.17;;;9.90;99.90;;;-141.84;86.54;74925.88;5114833;27;20218;-61
2024/04/03 00:26:05;;;;;;;4.87;3.00;;;9.90;99.90;;;-141.84;88.55;81790.53;5115114;27;20218;-62
2024/04/03 00:28:31;;;;;;;4.03;2.10;;;9.80;99.90;;;-141.84;89.67;86814.44;5115643;28;20223;-67
2024/04/03 00:31:02;;;;;;;6.00;2.20;;;9.80;99.90;;;-141.84;87.90;80733.66;5111801;28;20275;-61
2024/04/03 00:33:28;;;;;;;2.70;1.60;;;9.80;99.90;;;-141.84;89.49;85756.25;5104479;28;20211;-61
2024/04/03 00:35:57;;;;;;;5.77;2.20;;;9.80;99.90;;;-141.84;90.08;88402.22;5113996;27;20188;-66
2024/04/03 00:38:24;;;;;;;6.93;2.60;;;9.70;99.90;;;-141.84;90.68;89196.38;5115647;28;20237;-66
2024/04/03 00:41:01;;;;;;;5.87;2.43;;;9.70;99.90;;;-141.84;91.17;90785.09;5115199;28;20214;-66
2024/04/03 00:43:29;;;;;;;4.53;2.23;;;9.70;99.90;;;-141.84;91.35;92374.47;5113450;28;20229;-67
2024/04/03 00:46:04;;;;;;;3.57;2.20;;;9.60;99.90;;;-141.84;92.36;93434.41;5113575;28;20218;-66
2024/04/03 00:48:31;;;;;;;5.10;2.30;;;9.40;99.90;;;-141.84;94.22;99003.56;5098215;28;20258;-62
2024/04/03 00:51:04;;;;;;;4.07;2.13;;;9.40;99.90;;;-141.84;96.34;102455.00;5113559;28;20199;-68
2024/04/03 00:53:31;;;;;;;5.03;2.23;;;9.30;99.90;;;-141.84;97.69;105643.53;5115030;28;20211;-68
2024/04/03 00:56:01;;;;;;;6.07;2.20;;;9.30;99.90;;;-141.84;98.00;106441.06;5119696;28;20702;-61
2024/04/03 00:58:27;;;;;;;5.43;2.10;;;9.30;99.90;;;-141.84;96.73;104846.16;5113431;28;20218;-62
2024/04/03 01:00:54;;;;;;;4.60;2.40;;;9.30;99.90;;;-141.84;96.04;102986.25;5106982;28;20719;-67
2024/04/03 01:03:24;;;;;;;3.47;2.50;;;9.30;99.90;;;-141.84;95.88;102455.00;5116057;28;20196;-67
2024/04/03 01:06:01;;;;;;;6.17;2.70;;;9.30;99.90;;;-141.84;92.89;97146.31;5110929;28;20215;-67
2024/04/03 01:08:28;;;;;;;5.23;2.27;;;9.40;99.90;;;-141.84;93.21;96085.44;5115235;28;20214;-62
2024/04/03 01:10:57;;;;;;;5.50;2.50;;;9.40;99.90;;;-141.84;94.30;98472.84;5114389;28;20233;-62
2024/04/03 01:13:26;;;;;;;3.90;2.07;;;9.50;99.90;;;-141.84;92.90;95289.94;5110905;28;20695;-61
2024/04/03 01:15:54;;;;;;;5.63;2.53;;;9.50;99.90;;;-141.84;89.38;86285.31;5112558;28;20219;-69
2024/04/03 01:18:21;;;;;;;3.60;2.07;;;9.50;99.90;;;-141.84;86.85;75189.69;5120407;27;20214;-62
2024/04/03 01:20:48;;;;;;;3.40;2.50;;;9.60;99.90;;;-141.84;88.01;78356.72;5115060;27;20207;-61
2024/04/03 01:23:15;;;;;;;3.90;2.27;;;9.60;99.90;;;-141.84;86.26;73607.09;5119174;27;20279;-61
2024/04/03 01:25:43;;;;;;;4.80;2.40;;;9.60;99.90;;;-141.84;86.72;74134.56;5115239;28;20876;-61
2024/04/03 01:28:10;;;;;;;5.67;2.77;;;9.60;99.90;;;-141.84;85.45;68863.09;5114024;28;20224;-61
2024/04/03 01:30:37;;;;;;;5.20;2.00;;;9.60;99.90;;;-141.84;85.73;70707.31;5118254;27;20199;-62
2024/04/03 01:33:04;;;;;;;5.10;2.30;;;9.60;99.90;;;-141.84;86.09;71234.38;5112528;28;20203;-60
2024/04/03 01:35:32;;;;;;;7.53;2.73;;;9.60;99.90;;;-141.84;82.72;53877.56;5118129;27;20283;-61
2024/04/03 01:37:59;;;;;;;6.10;2.87;;;9.60;99.90;;;-141.84;83.11;55714.84;5119277;27;20682;-62
2024/04/03 01:40:27;;;;;;;4.07;2.10;;;9.60;99.90;;;-141.84;83.40;56765.13;5118176;27;20215;-66
2024/04/03 01:42:55;;;;;;;3.80;2.20;;;9.60;99.90;;;-141.84;83.15;55452.34;5117505;27;20226;-67
2024/04/03 01:45:22;;;;;;;5.07;2.50;;;9.60;99.90;;;-141.84;82.85;53615.19;5117669;27;20206;-68
2024/04/03 01:47:49;;;;;;;4.30;2.63;;;9.60;99.90;;;-141.84;83.44;56239.94;5115406;28;20690;-67
2024/04/03 01:50:33;;;;;;;5.60;2.40;;;9.40;99.90;;;-141.84;84.66;63072.50;5118122;27;20218;-66
2024/04/03 01:53:05;;;;;;;6.73;3.17;;;9.40;99.90;;;-141.84;86.15;70970.84;5117640;27;20229;-67
2024/04/03 01:55:32;;;;;;;4.93;2.10;;;9.30;99.90;;;-141.84;88.47;79677.06;5118825;27;20263;-66
2024/04/03 01:58:05;;;;;;;5.77;2.90;;;9.20;99.90;;;-141.84;89.90;86020.75;5117931;27;20227;-60
2024/04/03 02:00:31;;;;;;;4.80;3.03;;;9.10;99.90;;;-141.84;90.25;86285.31;5115569;28;20195;-61
2024/04/03 02:03:03;;;;;;;5.60;3.23;;;9.10;99.90;;;-141.84;90.15;86549.84;5119701;27;20202;-61
2024/04/03 02:05:29;;;;;;;9.73;3.40;;;9.00;99.90;;;-141.84;91.41;90520.28;5118352;27;20678;-67
2024/04/03 02:07:57;;;;;;;3.80;2.67;;;9.00;99.90;;;-141.84;88.54;80997.84;5114523;28;20272;-61
2024/04/03 02:10:23;;;;;;;6.67;2.90;;;9.10;99.90;;;-141.84;88.93;82054.78;5114526;28;20292;-67
2024/04/03 02:12:50;;;;;;;4.13;2.80;;;9.00;99.90;;;-141.84;88.28;80733.66;5115467;27;20687;-67
2024/04/03 02:15:20;;;;;;;5.00;3.10;;;9.10;99.90;;;-141.84;88.82;81790.53;5112246;28;20694;-60
2024/04/03 02:17:48;;;;;;;6.17;3.40;;;9.00;99.90;;;-141.84;88.77;84169.50;5120373;27;20211;-67
2024/04/03 02:20:14;;;;;;;4.47;3.03;;;9.00;99.90;;;-141.84;89.25;82583.34;5102389;27;20229;-67
2024/04/03 02:22:41;;;;;;;7.67;3.23;;;9.10;99.90;;;-141.84;89.82;85491.75;5117678;27;20263;-61
2024/04/03 02:25:07;;;;;;;8.53;3.40;;;9.10;99.90;;;-141.84;88.95;83112.00;5112822;28;20224;-61
2024/04/03 02:27:35;;;;;;;6.70;2.80;;;9.10;99.90;;;-141.84;85.54;67809.63;5117218;27;20667;-66
2024/04/03 02:30:07;;;;;;;5.20;2.90;;;9.10;99.90;;;-141.84;88.02;77828.72;5119220;27;20202;-67
2024/04/03 02:32:35;;;;;;;6.77;3.00;;;9.00;99.90;;;-141.84;90.69;87343.63;5118027;27;20222;-66
2024/04/03 02:35:02;;;;;;;8.50;2.77;;;9.00;99.90;;;-141.84;89.61;84698.34;5117685;27;20743;-66
2024/04/03 02:37:30;;;;;;;5.70;3.17;;;8.90;99.90;;;-141.84;86.00;69653.38;5115145;27;20222;-61
2024/04/03 02:39:56;;;;;;;6.03;2.40;;;9.00;99.90;;;-141.84;86.98;73870.81;5117128;27;20288;-61
2024/04/03 02:42:25;;;;;;;4.93;3.10;;;8.90;99.90;;;-141.84;87.88;77564.72;5119961;27;20202;-67
2024/04/03 02:44:51;;;;;;;6.13;2.90;;;8.90;99.90;;;-141.84;85.31;66756.44;5119955;27;20225;-61
2024/04/03 02:47:20;;;;;;;5.67;2.50;;;8.90;99.90;;;-141.84;86.56;72288.75;5116515;27;20705;-61
2024/04/03 02:49:47;;;;;;;3.13;1.87;;;9.00;99.90;;;-141.84;82.57;50729.94;5114346;28;20211;-67
2024/04/03 02:52:15;;;;;;;3.60;1.80;;;9.00;99.90;;;-141.84;81.33;41040.44;5113385;28;20227;-67
2024/04/03 02:54:41;;;;;;;5.67;2.00;;;9.10;99.90;;;-141.84;80.88;39160.94;5112815;27;20707;-67
2024/04/03 02:57:09;;;;;;;3.80;1.67;;;9.10;99.90;;;-141.84;83.34;53877.56;5118446;27;20218;-67
2024/04/03 02:59:35;;;;;;;4.27;2.10;;;9.10;99.90;;;-141.84;85.27;67019.72;5113931;28;20265;-66
2024/04/03 03:02:03;;;;;;;4.43;1.90;;;9.00;99.90;;;-141.84;81.79;44180.38;5116813;27;20222;-60
2024/04/03 03:04:41;;;;;;;4.93;1.83;;;9.00;99.90;;;-141.84;81.01;38274.63;5112414;28;20257;-61
2024/04/03 03:07:10;;;;;;;5.60;1.80;;;9.10;99.90;;;-141.84;81.68;44965.75;5113382;28;20279;-61
2024/04/03 03:09:37;;;;;;;5.87;2.00;;;9.00;99.90;;;-141.84;80.33;34537.56;5114448;27;20199;-60
2024/04/03 03:12:06;;;;;;;3.70;1.73;;;9.00;99.90;;;-141.84;79.68;28149.31;5117403;27;20199;-61
2024/04/03 03:14:33;;;;;;;3.40;1.93;;;9.10;99.90;;;-141.84;78.16;23309.03;5117267;27;20222;-60
2024/04/03 03:17:07;;;;;;;4.50;1.63;;;9.20;99.90;;;-141.84;77.67;22363.25;5116557;27;20226;-61
2024/04/03 03:19:33;;;;;;;4.37;1.57;;;9.20;99.90;;;-141.84;76.27;20618.72;5111613;28;20230;-67
2024/04/03 03:22:00;;;;;;;3.27;1.60;;;9.20;99.90;;;-141.84;75.05;19576.06;5113484;27;20230;-61
2024/04/03 03:24:28;;;;;;;4.13;1.80;;;9.30;99.90;;;-141.84;74.38;19332.19;5097658;27;20738;-61
2024/04/03 03:26:56;;;;;;;4.10;1.70;;;9.40;99.90;;;-141.84;75.53;19695.97;5116788;27;20203;-63
2024/04/03 03:29:22;;;;;;;4.03;1.60;;;9.30;99.90;;;-141.84;74.85;19557.78;5115405;27;20218;-60
2024/04/03 03:31:49;;;;;;;5.23;1.50;;;9.30;99.90;;;-141.84;75.70;19874.81;5114093;27;20230;-62
2024/04/03 03:34:16;;;;;;;2.90;1.70;;;9.30;99.90;;;-141.84;76.30;20283.34;5109970;27;20222;-61
2024/04/03 03:36:43;;;;;;;4.40;1.90;;;9.20;99.90;;;-141.84;74.36;19397.22;5115098;27;20199;-67
2024/04/03 03:39:10;;;;;;;3.53;1.67;;;9.30;99.90;;;-141.84;74.81;19513.06;5115913;27;20211;-66
2024/04/03 03:41:44;;;;;;;4.47;1.87;;;9.20;99.90;;;-141.84;74.50;19431.78;5114488;27;20218;-67
2024/04/03 03:44:11;;;;;;;2.10;1.60;;;9.30;99.90;;;-141.84;73.66;19232.63;5108977;27;20749;-66
2024/04/03 03:46:38;;;;;;;3.50;2.07;;;9.30;99.90;;;-141.84;73.71;19267.16;5114922;27;20591;-61
2024/04/03 03:54:40;;;;;;;3.27;2.20;;;9.30;99.90;;;-141.84;72.63;19114.78;5114841;27;20202;-61
2024/04/03 03:57:09;;;;;;;6.83;2.27;;;9.30;99.90;;;-141.84;72.98;19122.91;5117508;27;20190;-61
2024/04/03 03:59:36;;;;;;;4.47;1.70;;;9.30;99.90;;;-141.84;75.34;19738.66;5115912;27;20218;-62
2024/04/03 04:02:04;;;;;;;2.83;1.60;;;9.20;99.90;;;-141.84;76.15;20419.53;5115634;27;20271;-61
2024/04/03 04:04:31;;;;;;;5.07;1.87;;;9.20;99.90;;;-141.84;75.33;19754.91;5115469;27;20739;-62
2024/04/03 04:06:57;;;;;;;3.40;1.80;;;9.10;99.90;;;-141.84;75.79;20076.03;5114012;27;20263;-61
2024/04/03 04:09:25;;;;;;;4.13;1.67;;;9.10;99.90;;;-141.84;75.69;19988.63;5116155;27;20741;-62
2024/04/03 04:11:52;;;;;;;4.10;1.70;;;9.10;99.90;;;-141.84;75.70;20002.84;5116030;27;20194;-61
2024/04/03 04:14:21;;;;;;;4.30;1.83;;;9.10;99.90;;;-141.84;74.11;19380.97;5112530;28;20231;-61
2024/04/03 04:16:48;;;;;;;5.17;1.67;;;9.10;99.90;;;-141.84;75.13;19588.25;5112980;27;20223;-60
2024/04/03 04:19:14;;;;;;;3.77;2.20;;;9.20;99.90;;;-141.84;75.57;19897.16;5101541;28;20307;-60
2024/04/03 04:21:45;;;;;;;4.53;1.87;;;9.10;99.90;;;-141.84;75.19;19651.25;5101434;27;20199;-61
2024/04/03 04:24:13;;;;;;;4.97;2.20;;;9.10;99.90;;;-141.84;75.33;19767.09;5108418;27;20710;-66
2024/04/03 04:26:41;;;;;;;3.27;2.23;;;9.10;99.90;;;-141.84;76.03;20084.16;5107001;27;20237;-67
2024/04/03 04:29:07;;;;;;;4.93;1.83;;;9.10;99.90;;;-141.84;75.63;19992.69;5111203;27;20632;-66
2024/04/03 04:31:36;;;;;;;3.93;1.60;;;9.00;99.90;;;-141.84;75.54;19817.91;5113003;28;20248;-67
2024/04/03 04:34:02;;;;;;;3.83;2.23;;;9.00;99.90;;;-141.84;77.48;21818.25;5109891;27;20315;-67
2024/04/03 04:36:30;;;;;;;3.37;1.70;;;8.90;99.90;;;-141.84;78.64;24963.16;5114429;28;20202;-66
2024/04/03 04:38:56;;;;;;;3.53;1.40;;;8.90;99.90;;;-141.84;78.21;23402.59;5116397;28;20218;-62
2024/04/03 04:41:24;;;;;;;3.00;1.40;;;8.90;99.90;;;-141.84;77.75;22076.50;5103974;28;20231;-61
2024/04/03 04:43:51;;;;;;;4.80;1.30;;;8.90;99.90;;;-141.84;77.11;21273.34;5105900;28;20277;-61
2024/04/03 04:46:18;;;;;;;4.20;1.20;;;8.90;99.90;;;-141.84;76.35;20411.41;5113601;28;20747;-61
2024/04/03 04:48:46;;;;;;;3.80;1.47;;;8.90;99.90;;;-141.84;76.12;20189.84;5110540;28;20250;-61
2024/04/03 04:51:19;;;;;;;4.53;1.73;;;9.00;99.90;;;-141.84;77.32;21543.75;5106743;28;20195;-61
2024/04/03 04:53:49;;;;;;;4.63;1.53;;;9.00;99.90;;;-141.84;75.24;19826.03;5118020;27;20218;-61
2024/04/03 04:56:16;;;;;;;3.57;1.80;;;9.00;99.90;;;-141.84;75.19;19661.41;5118262;27;20230;-61
2024/04/03 04:58:43;;;;;;;6.07;2.03;;;9.00;99.90;;;-141.84;75.54;19864.66;5108063;28;20275;-61
2024/04/03 05:01:10;;;;;;;4.03;2.00;;;9.00;99.90;;;-141.84;76.98;20927.72;5108803;28;20218;-61
2024/04/03 05:03:37;;;;;;;4.07;2.40;;;9.00;99.90;;;-141.84;76.58;20614.66;5109727;27;20199;-61
2024/04/03 05:06:06;;;;;;;2.93;1.80;;;8.90;99.90;;;-141.84;76.74;21092.41;5116253;27;20210;-67
2024/04/03 05:08:33;;;;;;;4.20;1.77;;;8.90;99.90;;;-141.84;75.16;19635.00;5103500;28;20211;-67
2024/04/03 05:11:02;;;;;;;2.80;1.30;;;8.90;99.90;;;-141.84;76.74;20720.38;5116179;27;20222;-67
2024/04/03 05:13:32;;;;;;;3.17;1.30;;;8.90;99.90;;;-141.84;77.81;22399.84;5114956;27;20234;-67
2024/04/03 05:16:07;;;;;;;2.60;1.50;;;8.90;99.90;;;-141.84;78.19;23787.09;5113409;28;20226;-67
2024/04/03 05:18:33;;;;;;;4.13;1.97;;;8.90;99.90;;;-141.84;79.49;27520.03;5108074;28;20218;-67
2024/04/03 05:21:06;;;;;;;2.60;1.43;;;8.80;99.90;;;-141.84;78.45;24592.81;5111227;27;20207;-67
2024/04/03 05:23:33;;;;;;;4.47;2.20;;;8.90;99.90;;;-141.84;79.16;25736.56;5102937;28;20725;-67
2024/04/03 05:26:04;;;;;;;7.10;2.57;;;8.80;99.90;;;-141.84;76.86;20850.47;5110977;27;20227;-68
2024/04/03 05:28:31;;;;;;;3.20;1.87;;;8.90;99.90;;;-141.84;76.00;20114.63;5101827;28;20564;-66
2024/04/03 05:31:05;;;;;;;4.43;2.10;;;8.90;99.90;;;-141.84;76.33;20277.25;5114092;27;20629;-67
2024/04/03 05:33:32;;;;;;;2.77;1.60;;;9.00;99.90;;;-141.84;75.47;19840.25;5112323;28;20192;-66
2024/04/03 05:36:03;;;;;;;4.30;2.10;;;9.10;99.90;;;-141.84;73.44;19208.25;5118108;27;20195;-61
2024/04/03 05:38:31;;;;;;;3.20;1.90;;;9.20;99.90;;;-141.84;72.89;19153.38;5116803;27;20211;-66
2024/04/03 05:41:04;;;;;;;4.63;2.03;;;9.30;99.90;;;-141.84;70.21;18980.66;5104170;27;20250;-60
2024/04/03 05:43:32;;;;;;;3.77;1.77;;;9.50;99.90;;;-141.84;69.89;18960.34;5108605;28;20215;-61
2024/04/03 05:45:59;;;;;;;3.17;1.50;;;9.70;99.90;;;-141.84;68.29;18931.91;5109865;27;20233;-60
2024/04/03 05:48:28;;;;;;;2.20;1.30;;;9.90;99.90;;;-141.84;66.05;18946.13;5109766;28;20819;-60
2024/04/03 05:51:02;;;;;;;4.20;2.00;;;10.20;99.90;;;-141.84;63.99;18960.34;5114234;27;20199;-67
2024/04/03 05:53:31;;;;;;;3.40;1.60;;;10.40;99.90;;;-141.84;63.32;18986.75;5112982;28;20223;-62
2024/04/03 05:56:03;;;;;;;2.87;1.40;;;10.70;99.90;;;-141.84;63.06;19013.16;5115703;27;20226;-61
2024/04/03 05:58:29;;;;;;;4.10;1.47;;;10.80;99.90;;;-141.84;62.28;19019.28;5098751;28;20223;-68
2024/04/03 06:01:00;;;;;;;5.20;1.93;;;10.90;99.90;;;-141.84;62.66;19003.00;5108653;27;20234;-66
2024/04/03 06:03:26;;;;;;;7.00;1.83;;;10.90;99.90;;;-141.84;62.76;19013.16;5107450;28;20196;-61
2024/04/03 06:05:54;;;;;;;5.37;1.33;;;11.00;99.90;;;-141.84;63.19;19025.38;5111197;27;20237;-61
2024/04/03 06:08:21;;;;;;;2.13;1.40;;;10.90;99.90;;;-141.84;63.21;19011.13;5109771;27;20273;-60
2024/04/03 06:10:51;;;;;;;3.30;1.30;;;11.00;99.90;;;-141.84;62.24;19043.66;5112345;28;20215;-61
2024/04/03 06:13:17;;;;;;;3.17;1.40;;;11.00;99.90;;;-141.84;60.79;19029.44;5108416;28;20227;-67
2024/04/03 06:15:46;;;;;;;1.63;1.17;;;11.10;99.90;;;-141.84;61.56;19029.44;5113340;27;20235;-67
2024/04/03 06:18:13;;;;;;;1.87;1.00;;;11.20;99.90;;;-141.84;61.26;19029.44;5116027;27;20226;-66
2024/04/03 06:20:40;;;;;;;4.67;1.40;;;11.20;99.90;;;-141.84;60.65;19098.50;5099541;28;20215;-67
2024/04/03 06:23:10;;;;;;;2.90;1.20;;;11.20;99.90;;;-141.84;60.33;19068.03;5106189;28;20268;-67
2024/04/03 06:25:37;;;;;;;2.73;1.40;;;11.20;99.90;;;-141.84;60.00;19051.78;5107496;28;20211;-61
2024/04/03 06:28:07;;;;;;;2.57;1.40;;;11.30;99.90;;;-141.84;59.36;19100.53;5108028;28;20779;-61
2024/04/03 06:30:34;;;;;;;2.87;1.60;;;11.40;99.90;;;-141.84;59.03;19084.28;5110458;28;20219;-61
2024/04/03 06:33:01;;;;;;;3.87;1.40;;;11.40;99.90;;;-141.84;58.99;19096.47;5113636;28;20207;-61
2024/04/03 06:35:28;;;;;;;3.17;1.70;;;11.40;99.90;;;-141.84;58.93;19096.47;5111083;28;20226;-62
2024/04/03 06:37:54;;;;;;;2.90;1.23;;;11.50;99.90;;;-141.84;59.28;19094.44;5112484;27;20634;-62
2024/04/03 06:40:21;;;;;;;2.93;1.27;;;11.50;99.90;;;-141.84;58.36;19108.69;5112294;28;20212;-62
2024/04/03 06:42:49;;;;;;;2.17;1.00;;;11.60;99.90;;;-141.84;58.25;19112.75;5106120;27;20215;-62
2024/04/03 06:45:19;;;;;;;3.97;1.40;;;11.60;99.90;;;-141.84;58.37;19118.84;5109431;27;21085;-67
2024/04/03 06:47:47;;;;;;;3.10;1.30;;;11.70;99.90;;;-141.84;59.08;19094.44;5106727;28;20230;-67
2024/04/03 06:50:15;;;;;;;4.57;1.33;;;11.80;99.90;;;-141.84;58.37;19124.94;5105504;28;20791;-68
2024/04/03 06:52:41;;;;;;;3.10;1.50;;;11.70;99.90;;;-141.84;58.28;19114.78;5109390;27;20212;-68
2024/04/03 06:55:09;;;;;;;5.33;1.60;;;11.70;99.90;;;-141.84;58.51;19110.72;5110201;28;20223;-68
2024/04/03 06:57:35;;;;;;;4.67;1.30;;;11.80;99.90;;;-141.84;58.45;19114.78;5110603;27;20200;-67
2024/04/03 07:00:03;;;;;;;2.43;1.23;;;11.80;99.90;;;-141.84;58.91;19118.84;5112900;27;20675;-67
2024/04/03 07:02:32;;;;;;;2.87;1.43;;;11.70;99.90;;;-141.84;58.26;19157.44;5104534;28;20219;-65
2024/04/03 07:05:00;;;;;;;3.40;1.57;;;11.80;99.90;;;-141.84;58.48;19133.06;5106928;27;20218;-66
2024/04/03 07:07:26;;;;;;;3.23;1.50;;;11.80;99.90;;;-141.84;59.13;19116.81;5111546;28;20219;-65
2024/04/03 07:09:54;;;;;;;5.67;1.30;;;11.90;99.90;;;-141.84;58.12;19155.41;5108036;28;20234;-68
2024/04/03 07:12:21;;;;;;;3.37;1.50;;;12.00;99.90;;;-141.84;56.83;19196.06;5106249;27;20211;-68
2024/04/03 07:14:48;;;;;;;3.97;1.70;;;12.10;99.90;;;-141.84;56.54;19181.81;5114807;27;20255;-68
2024/04/03 07:17:15;;;;;;;4.77;1.70;;;12.30;99.90;;;-141.84;56.60;19224.50;5114591;27;20214;-69
2024/04/03 07:19:43;;;;;;;2.57;1.27;;;12.30;99.90;;;-141.84;56.48;19194.03;5110934;27;20219;-68
2024/04/03 07:22:10;;;;;;;3.97;1.40;;;12.30;99.90;;;-141.84;56.76;19163.53;5114239;27;20210;-68
2024/04/03 07:24:36;;;;;;;2.57;1.60;;;12.30;99.90;;;-141.84;56.52;19220.44;5113559;27;20218;-68
2024/04/03 07:27:04;;;;;;;4.57;1.37;;;12.30;99.90;;;-141.84;56.85;19163.53;5113361;27;20195;-67
2024/04/03 07:29:32;;;;;;;4.68;1.25;;;12.40;99.90;;;-141.84;54.83;19277.34;5110923;28;20695;-66
2024/04/03 07:31:58;;;;;;;5.65;1.83;;;12.70;99.90;;;-141.84;54.74;19226.53;5108621;27;20618;-67
2024/04/03 07:34:26;;;;;;;3.28;1.45;;;12.70;99.90;;;-141.84;54.96;19224.50;5061065;27;20219;-68
2024/04/03 07:36:54;;;;;;;3.08;1.20;;;12.80;99.90;;;-141.84;55.57;19216.38;5107479;27;20219;-66
2024/04/03 07:39:21;;;;;;;2.42;1.10;;;12.70;99.90;;;-141.84;55.96;19200.13;5111728;28;20280;-66
2024/04/03 07:41:47;;;;;;;5.40;1.80;;;12.70;99.90;;;-141.84;55.21;19275.31;5111867;27;20271;-67
2024/04/03 07:44:17;;;;;;;3.55;1.30;;;12.90;99.90;;;-141.84;54.53;19289.53;5107489;27;20237;-69
2024/04/03 07:46:43;;;;;;;3.47;1.25;;;13.00;99.90;;;-141.84;53.72;19297.66;5103889;27;20211;-63
2024/04/03 07:49:11;;;;;;;3.38;1.58;;;13.20;99.90;;;-141.84;53.74;19307.81;5108497;27;20219;-63
2024/04/03 07:51:38;;;;;;;3.88;1.58;;;13.30;99.90;;;-141.84;52.95;19313.91;5106051;27;20202;-62
2024/04/03 07:54:06;;;;;;;2.53;1.15;;;13.50;99.90;;;-141.84;53.24;19301.72;5106314;27;20221;-64
2024/04/03 07:56:33;;;;;;;3.63;1.50;;;13.50;99.90;;;-141.84;53.01;19303.75;5112928;27;20218;-63
2024/04/03 07:59:02;;;;;;;4.60;1.30;;;13.60;99.90;;;-141.84;52.77;19366.75;5106649;27;20222;-63
2024/04/03 08:01:30;;;;;;;2.47;1.20;;;13.70;99.90;;;-141.84;53.02;19389.09;5113735;27;20214;-64
2024/04/03 08:03:56;;;;;;;2.47;1.30;;;13.80;99.90;;;-141.84;53.03;19397.22;5113617;27;20230;-64
2024/04/03 08:06:25;;;;;;;3.05;1.52;;;13.80;99.90;;;-141.84;53.17;19350.50;5113568;27;20199;-63
2024/04/03 08:08:51;;;;;;;4.28;1.58;;;13.70;99.90;;;-141.84;53.42;19366.75;5104894;27;20654;-61
2024/04/03 08:11:21;;;;;;;4.53;2.13;;;13.70;99.90;;;-141.84;53.30;19364.72;5111737;27;20346;-62
2024/04/03 08:13:48;;;;;;;3.47;1.52;;;13.80;99.90;;;-141.84;53.37;19364.72;5112535;27;20226;-64
2024/04/03 08:16:15;;;;;;;3.30;1.58;;;13.80;99.90;;;-141.84;53.44;19383.00;5112505;27;20263;-61
2024/04/03 08:18:41;;;;;;;2.88;1.30;;;13.90;99.90;;;-141.84;52.43;19356.59;5112990;27;20228;-61
2024/04/03 08:21:10;;;;;;;2.35;1.48;;;13.90;99.90;;;-141.84;53.29;19352.53;5109127;27;20205;-62
2024/04/03 08:23:36;;;;;;;2.95;1.42;;;13.90;99.90;;;-141.84;53.91;19397.22;5112960;27;20214;-64
2024/04/03 08:26:06;;;;;;;4.97;1.60;;;13.90;99.90;;;-141.84;53.57;19374.88;5112469;27;20218;-64
2024/04/03 08:28:38;;;;;;;3.95;1.45;;;13.90;99.90;;;-141.84;53.91;19334.22;5112924;27;20743;-64
2024/04/03 08:31:11;;;;;;;2.50;1.30;;;14.00;99.90;;;-141.84;54.20;19403.31;5112741;28;20690;-62
2024/04/03 08:33:37;;;;;;;3.85;1.95;;;14.00;99.90;;;-141.84;53.86;19413.47;5107612;28;20621;-62
2024/04/03 08:36:07;;;;;;;6.00;1.40;;;14.00;99.90;;;-141.84;53.53;19411.44;5113586;28;20199;-63
2024/04/03 08:38:33;;;;;;;4.50;1.55;;;14.20;99.90;;;-141.84;53.24;19421.63;5112007;27;20241;-63
2024/04/03 08:41:02;;;;;;;3.83;1.67;;;14.30;99.90;;;-141.84;52.96;19419.59;5112760;28;20717;-63
2024/04/03 08:43:28;;;;;;;2.35;1.70;;;14.30;99.90;;;-141.84;53.72;19409.41;5112599;28;20214;-62
2024/04/03 08:45:58;;;;;;;3.35;1.48;;;14.40;99.90;;;-141.84;52.58;19478.50;5104189;28;20214;-63
2024/04/03 08:48:25;;;;;;;4.07;2.00;;;14.60;99.90;;;-141.84;52.61;19448.03;5104013;28;20218;-63
2024/04/03 08:50:54;;;;;;;4.75;1.63;;;14.70;99.90;;;-141.84;52.06;19462.25;5113949;28;20195;-61
2024/04/03 08:53:22;;;;;;;3.25;1.58;;;14.60;99.90;;;-141.84;52.54;19435.84;5111342;28;20214;-62
2024/04/03 08:55:53;;;;;;;2.58;1.48;;;14.50;99.90;;;-141.84;53.15;19433.81;5103034;28;20218;-65
2024/04/03 08:58:21;;;;;;;5.47;1.80;;;14.40;99.90;;;-141.84;53.06;19488.69;5108194;28;20214;-64
2024/04/03 09:00:49;;;;;;;4.80;1.70;;;14.40;99.90;;;-141.84;53.59;19466.31;5112667;28;20225;-62
2024/04/03 09:03:19;;;;;;;6.05;2.00;;;14.50;99.90;;;-141.84;53.10;19476.47;5108868;28;20256;-63
2024/04/03 09:05:46;;;;;;;2.92;1.55;;;14.60;99.90;;;-141.84;52.01;19525.25;5109553;28;20214;-62
2024/04/03 09:08:13;;;;;;;3.53;1.40;;;14.80;99.90;;;-141.84;51.96;19472.41;5112720;28;20218;-62
2024/04/03 09:10:47;;;;;;;4.03;1.50;;;14.90;99.90;;;-141.84;52.03;19474.44;5112709;28;20218;-62
2024/04/03 09:13:13;;;;;;;4.57;1.90;;;14.80;99.90;;;-141.84;52.75;19446.00;5103181;28;20231;-62
2024/04/03 09:15:41;;;;;;;7.10;3.10;;;14.70;99.90;;;-141.84;54.08;19435.84;5081306;28;20213;-63
2024/04/03 09:18:09;;;;;;;4.82;2.30;;;14.70;99.90;;;-141.84;55.22;19403.31;5081528;28;20200;-59
2024/04/03 09:20:40;;;;;;;3.35;2.13;;;14.50;99.90;;;-141.84;55.78;19411.44;5075194;28;20251;-60
2024/04/03 09:23:09;;;;;;;2.35;1.88;;;14.50;99.90;;;-141.84;56.70;19429.75;5091822;28;20215;-61
2024/04/03 09:25:39;;;;;;;4.90;2.05;;;14.50;99.90;;;-141.84;57.95;19403.31;5091691;28;20750;-61
2024/04/03 09:28:07;;;;;;;2.20;1.48;;;14.50;99.90;;;-141.84;57.31;19427.72;5087193;28;20603;-62
2024/04/03 09:30:39;;;;;;;5.60;1.58;;;14.20;99.90;;;-141.84;56.93;19478.50;5077040;28;20187;-62
2024/04/03 09:33:07;;;;;;;2.83;1.48;;;14.50;99.90;;;-141.84;59.05;19423.66;5078289;28;20557;-61
2024/04/03 09:35:36;;;;;;;5.43;1.70;;;14.60;99.90;;;-141.84;57.73;19415.50;5081109;28;20246;-62
2024/04/03 09:38:04;;;;;;;3.03;1.73;;;14.50;99.90;;;-141.84;58.92;19419.59;5081997;28;20220;-62
2024/04/03 09:40:34;;;;;;;2.20;1.52;;;14.50;99.90;;;-141.84;59.15;19437.88;5085900;28;20232;-61
2024/04/03 09:43:04;;;;;;;2.80;1.58;;;14.60;99.90;;;-141.84;58.10;19417.56;5080473;28;20300;-60
2024/04/03 09:45:31;;;;;;;4.03;1.60;;;14.60;99.90;;;-141.84;58.68;19399.25;5087147;28;20214;-61
2024/04/03 09:48:00;;;;;;;1.90;1.33;;;14.60;99.90;;;-141.84;58.74;19407.38;5087553;28;20262;-61
2024/04/03 09:50:38;;;;;;;4.72;1.60;;;14.70;99.90;;;-141.84;57.83;19427.72;5084245;28;20261;-60
2024/04/03 09:53:12;;;;;;;3.50;1.65;;;14.70;99.90;;;-141.84;58.07;19415.50;5087952;28;20295;-62
2024/04/03 09:55:41;;;;;;;6.20;4.20;;;14.80;99.90;;;-141.84;58.66;19427.72;5082580;28;20235;-60
2024/04/03 09:58:11;;;;;;;4.07;1.60;;;14.80;99.90;;;-141.84;57.60;19419.59;5080019;28;20219;-60
2024/04/03 10:00:39;;;;;;;2.63;1.67;;;14.80;99.90;;;-141.84;58.87;19431.78;5079906;28;20234;-60
2024/04/03 10:03:19;;;;;;;2.33;1.50;;;14.70;99.90;;;-141.84;57.38;19391.13;5095382;28;20574;-60
2024/04/03 10:05:48;;;;;;;3.95;1.70;;;14.70;99.90;;;-141.84;58.96;19405.34;5060532;28;20215;-58
2024/04/03 10:08:17;;;;;;;3.15;1.83;;;14.70;99.90;;;-141.84;59.60;19395.19;5090829;28;20227;-58
2024/04/03 10:10:46;;;;;;;2.58;1.60;;;14.60;99.90;;;-141.84;60.85;19399.25;5087148;28;20338;-59
2024/04/03 10:13:13;;;;;;;2.95;1.80;;;14.50;99.90;;;-141.84;60.56;19346.44;5095476;27;20234;-59
2024/04/03 10:15:41;;;;;;;1.90;1.40;;;14.40;99.90;;;-141.84;60.95;19399.25;5116040;27;20191;-57
2024/04/03 10:18:07;;;;;;;4.13;1.95;;;14.30;99.90;;;-141.84;62.75;19340.31;5113621;28;20586;-64
2024/04/03 10:20:39;;;;;;;3.28;1.98;;;14.20;99.90;;;-141.84;63.10;19413.47;5113240;27;20714;-61